Time;durP1;ratioP1;P1;durP2;ratioP2;P2;SDS_P1;SDS_P2;PMS_P1;PMS_P2;Temp;Humidity;BMP_temperature;BMP_pressure;BME280_temperature;BME280_humidity;BME280_pressure;Samples;Min_cycle;Max_cycle;Signal;HPM_P1;HPM_P2
2019/05/24 00:04:43;;;;;;;11.5;10.4;;;;;;;8.1;97.22559;960.1725;;;;
2019/05/24 00:11:53;;;;;;;11.7;10.6;;;;;;;8.06;97.02246;960.2147;;;;
2019/05/24 00:14:19;;;;;;;12.8;11.6;;;;;;;8.02;97.03516;960.168;;;;
2019/05/24 00:16:44;;;;;;;12.2;11.1;;;;;;;7.99;97.32715;960.166;;;;
2019/05/24 00:19:09;;;;;;;12.3;11.1;;;;;;;7.98;97.1875;960.1931;;;;
2019/05/24 00:21:36;;;;;;;13.1;10.8;;;;;;;7.96;97.23926;960.1433;;;;
2019/05/24 00:24:01;;;;;;;12.5;11.2;;;;;;;7.92;97.23242;960.1002;;;;
2019/05/24 00:26:29;;;;;;;12.4;11.2;;;;;;;7.9;97.39844;960.064;;;;
2019/05/24 00:28:54;;;;;;;12.8;11;;;;;;;7.9;97.49023;960.0345;;;;
2019/05/24 00:31:20;;;;;;;12.8;11.5;;;;;;;7.88;97.66797;960.113;;;;
2019/05/24 00:33:44;;;;;;;11.8;10.7;;;;;;;7.86;97.60645;960.0978;;;;
2019/05/24 00:36:10;;;;;;;11.8;10.5;;;;;;;7.83;97.60254;960.1255;;;;
2019/05/24 00:38:35;;;;;;;13.5;11.9;;;;;;;7.79;97.90137;960.0914;;;;
2019/05/24 00:41:01;;;;;;;14.2;12.8;;;;;;;7.82;98.48145;960.0711;;;;
2019/05/24 00:43:25;;;;;;;15.3;13.8;;;;;;;7.81;99.27051;960.0853;;;;
2019/05/24 00:45:58;;;;;;;15.2;13.6;;;;;;;7.79;99.1748;960.1124;;;;
2019/05/24 00:48:23;;;;;;;13.6;12.4;;;;;;;7.75;98.94629;960.0483;;;;
2019/05/24 00:50:50;;;;;;;15;13.6;;;;;;;7.68;98.94141;960.0338;;;;
2019/05/24 00:53:15;;;;;;;13.4;11.9;;;;;;;7.65;99.24414;960.0748;;;;
2019/05/24 00:55:41;;;;;;;13;11.7;;;;;;;7.63;99.21777;960.0428;;;;
2019/05/24 00:58:06;;;;;;;13.4;12.1;;;;;;;7.58;99.35449;959.9794;;;;
2019/05/24 01:00:33;;;;;;;14;12.6;;;;;;;7.56;99.51074;960.0658;;;;
2019/05/24 01:03:13;;;;;;;16.9;15.2;;;;;;;7.52;99.48828;959.9467;;;;
2019/05/24 01:06:00;;;;;;;15.6;14;;;;;;;7.51;98.86816;959.9347;;;;
2019/05/24 01:08:27;;;;;;;13.5;12.2;;;;;;;7.48;98.78125;959.8786;;;;
2019/05/24 01:10:51;;;;;;;13.2;11.9;;;;;;;7.49;98.71484;959.856;;;;
2019/05/24 01:13:16;;;;;;;13.9;12.6;;;;;;;7.42;98.50586;959.8367;;;;
2019/05/24 01:15:43;;;;;;;14.6;13.2;;;;;;;7.38;98.51855;959.8362;;;;
2019/05/24 01:18:08;;;;;;;13.5;12.1;;;;;;;7.39;98.74023;959.7888;;;;
2019/05/24 01:20:33;;;;;;;12.9;11.5;;;;;;;7.4;98.98047;959.7076;;;;
2019/05/24 01:22:58;;;;;;;13.2;11.8;;;;;;;7.4;98.88867;959.7411;;;;
2019/05/24 01:25:43;;;;;;;12.2;10.9;;;;;;;7.45;98.4541;959.6644;;;;
2019/05/24 01:28:09;;;;;;;12.6;11.3;;;;;;;7.55;98.31445;959.6853;;;;
2019/05/24 01:30:46;;;;;;;15.1;13.5;;;;;;;7.54;98.14063;959.6606;;;;
2019/05/24 01:33:16;;;;;;;15.3;13.8;;;;;;;7.4;98.53418;959.6902;;;;
2019/05/24 01:35:41;;;;;;;12.6;11.4;;;;;;;7.34;98.8877;959.6956;;;;
2019/05/24 01:38:06;;;;;;;16;14.4;;;;;;;7.32;99.51367;959.6805;;;;
2019/05/24 01:40:31;;;;;;;15.5;14;;;;;;;7.27;99.91406;959.6727;;;;
2019/05/24 01:42:56;;;;;;;17.2;15.4;;;;;;;7.18;100;959.7019;;;;
2019/05/24 01:45:25;;;;;;;18.5;16.6;;;;;;;7.17;100;959.7455;;;;
2019/05/24 01:47:50;;;;;;;14.7;13.2;;;;;;;7.15;100;959.7817;;;;
2019/05/24 01:50:15;;;;;;;15.8;14.2;;;;;;;7.21;100;959.7633;;;;
2019/05/24 01:52:40;;;;;;;18.1;15.6;;;;;;;7.17;100;959.6903;;;;
2019/05/24 01:55:07;;;;;;;16.2;14.5;;;;;;;7.2;99.50781;959.5938;;;;
2019/05/24 01:57:35;;;;;;;14.2;12.8;;;;;;;7.18;99.12598;959.5237;;;;
2019/05/24 02:00:03;;;;;;;14.8;13.3;;;;;;;7.24;98.80566;959.4805;;;;
2019/05/24 02:02:29;;;;;;;13.8;12.5;;;;;;;7.18;98.85059;959.4816;;;;
2019/05/24 02:04:54;;;;;;;13.7;12.3;;;;;;;7.13;98.96484;959.4356;;;;
2019/05/24 02:07:20;;;;;;;18.1;16.2;;;;;;;7.05;98.99219;959.375;;;;
2019/05/24 02:09:45;;;;;;;15.4;13.7;;;;;;;6.93;99.38672;959.4409;;;;
2019/05/24 02:12:12;;;;;;;13.9;12.5;;;;;;;6.91;99.81934;959.4678;;;;
2019/05/24 02:14:38;;;;;;;16.7;15;;;;;;;7;100;959.4817;;;;
2019/05/24 02:17:03;;;;;;;17.8;14.6;;;;;;;6.93;100;959.4623;;;;
2019/05/24 02:19:28;;;;;;;15.5;14;;;;;;;6.9;100;959.4094;;;;
2019/05/24 02:21:55;;;;;;;15.7;14;;;;;;;6.9;100;959.405;;;;
2019/05/24 02:24:23;;;;;;;15.2;13.7;;;;;;;6.86;100;959.4005;;;;
2019/05/24 02:26:48;;;;;;;18.3;16.4;;;;;;;6.88;100;959.3695;;;;
2019/05/24 02:29:22;;;;;;;17.4;15.7;;;;;;;6.88;100;959.3775;;;;
2019/05/24 02:31:47;;;;;;;16.7;14.9;;;;;;;6.82;99.96973;959.353;;;;
2019/05/24 02:34:14;;;;;;;15.8;14.1;;;;;;;6.76;100;959.3839;;;;
2019/05/24 02:36:39;;;;;;;17.4;15.7;;;;;;;6.74;100;959.3861;;;;
2019/05/24 02:39:04;;;;;;;15;13.5;;;;;;;6.72;100;959.4341;;;;
2019/05/24 02:41:29;;;;;;;18.9;17.1;;;;;;;6.78;100;959.4542;;;;
2019/05/24 02:43:54;;;;;;;20.3;18.3;;;;;;;6.85;100;959.474;;;;
2019/05/24 02:46:20;;;;;;;19.7;17.8;;;;;;;6.84;100;959.4152;;;;
2019/05/24 02:48:55;;;;;;;18.4;16.2;;;;;;;6.78;100;959.3953;;;;
2019/05/24 02:51:26;;;;;;;23.1;20.9;;;;;;;6.72;100;959.4302;;;;
2019/05/24 02:53:51;;;;;;;19.7;17.8;;;;;;;6.72;100;959.4476;;;;
2019/05/24 02:56:16;;;;;;;17.2;15.4;;;;;;;6.65;100;959.3983;;;;
2019/05/24 02:58:41;;;;;;;18.5;16.6;;;;;;;6.61;100;959.4359;;;;
2019/05/24 03:01:07;;;;;;;16.9;15.1;;;;;;;6.59;100;959.4584;;;;
2019/05/24 03:03:31;;;;;;;16.4;14.8;;;;;;;6.54;100;959.4586;;;;
2019/05/24 03:05:57;;;;;;;19.6;17.6;;;;;;;6.5;100;959.4119;;;;
2019/05/24 03:08:22;;;;;;;19.4;17.5;;;;;;;6.5;100;959.4715;;;;
2019/05/24 03:10:47;;;;;;;23.5;21.2;;;;;;;6.43;100;959.4142;;;;
2019/05/24 03:13:13;;;;;;;20.6;18.5;;;;;;;6.41;100;959.4067;;;;
2019/05/24 03:15:38;;;;;;;19.1;17.3;;;;;;;6.4;100;959.4121;;;;
2019/05/24 03:18:17;;;;;;;18.8;16.9;;;;;;;6.36;100;959.4456;;;;
2019/05/24 03:20:45;;;;;;;18;16.3;;;;;;;6.34;100;959.447;;;;
2019/05/24 03:23:12;;;;;;;19;17.1;;;;;;;6.32;100;959.368;;;;
2019/05/24 03:25:37;;;;;;;17.8;16.1;;;;;;;6.31;100;959.3822;;;;
2019/05/24 03:28:19;;;;;;;20.1;18.2;;;;;;;6.29;100;959.3669;;;;
2019/05/24 03:30:50;;;;;;;19.2;17.4;;;;;;;6.27;100;959.3307;;;;
2019/05/24 03:33:15;;;;;;;26.7;24.1;;;;;;;6.27;100;959.2712;;;;
2019/05/24 03:35:41;;;;;;;23.4;20.5;;;;;;;6.31;100;959.2972;;;;
2019/05/24 03:38:06;;;;;;;19.2;17.2;;;;;;;6.31;100;959.3273;;;;
2019/05/24 03:40:31;;;;;;;22.9;20.6;;;;;;;6.29;100;959.3336;;;;
2019/05/24 03:42:57;;;;;;;21.8;19.5;;;;;;;6.24;100;959.3416;;;;
2019/05/24 03:45:30;;;;;;;22;19.8;;;;;;;6.29;100;959.2612;;;;
2019/05/24 03:48:00;;;;;;;18.7;16.8;;;;;;;6.35;100;959.2772;;;;
2019/05/24 03:50:33;;;;;;;21.5;19.2;;;;;;;6.31;100;959.2805;;;;
2019/05/24 03:53:03;;;;;;;20.8;18.6;;;;;;;6.34;100;959.2739;;;;
2019/05/24 03:55:46;;;;;;;19.9;17.8;;;;;;;6.33;100;959.3041;;;;
2019/05/24 03:58:12;;;;;;;18.7;16.8;;;;;;;6.34;100;959.3502;;;;
2019/05/24 04:02:27;;;;;;;19.2;17.4;;;;;;;6.39;100;959.3453;;;;
2019/05/24 04:05:06;;;;;;;20.7;18.6;;;;;;;6.59;99.19336;959.4291;;;;
2019/05/24 04:07:31;;;;;;;24.7;22.1;;;;;;;6.52;99.35938;959.3893;;;;
2019/05/24 04:09:56;;;;;;;22.1;19.8;;;;;;;6.55;99.88281;959.3946;;;;
2019/05/24 04:12:21;;;;;;;21;18.8;;;;;;;6.6;99.89453;959.4453;;;;
2019/05/24 04:14:52;;;;;;;22.4;20.2;;;;;;;6.64;99.6748;959.4504;;;;
2019/05/24 04:17:17;;;;;;;19.3;17.4;;;;;;;6.68;99.22559;959.4509;;;;
2019/05/24 04:19:44;;;;;;;18.2;16.3;;;;;;;6.77;99.12207;959.5019;;;;
2019/05/24 04:22:09;;;;;;;21.1;18.9;;;;;;;6.82;98.97461;959.5399;;;;
2019/05/24 04:24:52;;;;;;;19;17.1;;;;;;;6.93;98.91895;959.5251;;;;
2019/05/24 04:27:17;;;;;;;18.5;16.6;;;;;;;7.04;98.56641;959.5666;;;;
2019/05/24 04:29:44;;;;;;;17.8;15.9;;;;;;;7.1;98.22559;959.5099;;;;
2019/05/24 04:32:09;;;;;;;17.1;15.4;;;;;;;7.19;97.77637;959.468;;;;
2019/05/24 04:34:53;;;;;;;19;17.3;;;;;;;7.21;98.26172;959.5381;;;;
2019/05/24 04:37:17;;;;;;;20.4;18.4;;;;;;;7.35;97.07813;959.466;;;;
2019/05/24 04:39:43;;;;;;;16.7;15;;;;;;;7.52;96.62598;959.5305;;;;
2019/05/24 04:42:08;;;;;;;17.2;14.4;;;;;;;7.58;96.29688;959.5505;;;;
2019/05/24 04:44:34;;;;;;;15.1;13.6;;;;;;;7.67;95.59277;959.572;;;;
2019/05/24 04:46:59;;;;;;;16.6;13.6;;;;;;;7.82;94.47949;959.5998;;;;
2019/05/24 04:49:25;;;;;;;15.3;13.7;;;;;;;7.91;93.10156;959.4979;;;;
2019/05/24 04:51:51;;;;;;;14.6;13.1;;;;;;;7.95;94.22266;959.4305;;;;
2019/05/24 04:54:15;;;;;;;15.2;13.6;;;;;;;8.04;93.54004;959.4353;;;;
2019/05/24 04:56:42;;;;;;;15.1;13.2;;;;;;;8.1;92.22266;959.4461;;;;
2019/05/24 04:59:08;;;;;;;15.2;13.6;;;;;;;8.2;91.98145;959.5339;;;;
2019/05/24 05:01:33;;;;;;;15.2;13.6;;;;;;;8.11;91.19434;959.5094;;;;
2019/05/24 05:03:57;;;;;;;15.9;14.2;;;;;;;8.31;91.00586;959.5195;;;;
2019/05/24 05:06:24;;;;;;;16.2;13.5;;;;;;;8.37;90.61719;959.5229;;;;
2019/05/24 05:08:50;;;;;;;15.2;13.6;;;;;;;8.53;89.33105;959.5621;;;;
2019/05/24 05:11:15;;;;;;;15.9;14.2;;;;;;;8.54;89.84766;959.5828;;;;
2019/05/24 05:13:41;;;;;;;16.5;13.7;;;;;;;8.56;88.92285;959.6015;;;;
2019/05/24 05:16:07;;;;;;;15.7;13.8;;;;;;;8.68;88.70703;959.6111;;;;
2019/05/24 05:18:45;;;;;;;15.6;12.9;;;;;;;8.75;89.03027;959.5914;;;;
2019/05/24 05:21:16;;;;;;;14.3;12.8;;;;;;;8.93;88.44629;959.6037;;;;
2019/05/24 05:23:41;;;;;;;15.6;13.1;;;;;;;9.09;89.67578;959.6181;;;;
2019/05/24 05:26:24;;;;;;;16.1;14.3;;;;;;;9.13;88.99512;959.6264;;;;
2019/05/24 05:28:51;;;;;;;15.9;12.9;;;;;;;9.27;88.99902;959.6804;;;;
2019/05/24 05:31:16;;;;;;;16.6;14.8;;;;;;;9.18;89.0293;959.5875;;;;
2019/05/24 05:33:41;;;;;;;14.9;13.4;;;;;;;9.33;89.11621;959.568;;;;
2019/05/24 05:36:06;;;;;;;19.9;17.8;;;;;;;9.38;88.73535;959.5545;;;;
2019/05/24 05:38:31;;;;;;;18.8;16.8;;;;;;;;;;;;;
2019/05/24 05:40:56;;;;;;;19.4;17.1;;;;;;;;;;;;;
2019/05/24 05:43:21;;;;;;;18.4;16.6;;;;;;;;;;;;;
2019/05/24 05:45:55;;;;;;;15.3;13.7;;;;;;;;;;;;;
2019/05/24 05:48:26;;;;;;;22.2;17.6;;;;;;;;;;;;;
2019/05/24 05:50:52;;;;;;;17.8;15.8;;;;;;;;;;;;;
2019/05/24 05:53:21;;;;;;;17.4;15.5;;;;;;;;;;;;;
2019/05/24 05:55:47;;;;;;;25.5;21.9;;;;;;;;;;;;;
2019/05/24 05:58:11;;;;;;;17;15.2;;;;;;;;;;;;;
2019/05/24 06:00:39;;;;;;;20.6;16.6;;;;;;;;;;;;;
2019/05/24 06:03:04;;;;;;;18.4;16.5;;;;;;;;;;;;;
2019/05/24 06:05:30;;;;;;;17.7;15.7;;;;;;;;;;;;;
2019/05/24 06:07:56;;;;;;;16.4;14.8;;;;;;;;;;;;;
2019/05/24 06:10:22;;;;;;;15.5;13.9;;;;;;;;;;;;;
2019/05/24 06:12:48;;;;;;;15.1;13.5;;;;;;;;;;;;;
2019/05/24 06:15:15;;;;;;;14.7;13.2;;;;;;;;;;;;;
2019/05/24 06:17:46;;;;;;;13.5;12.1;;;;;;;;;;;;;
2019/05/24 06:20:17;;;;;;;14.3;12.8;;;;;;;;;;;;;
2019/05/24 06:22:44;;;;;;;14.4;12.8;;;;;;;;;;;;;
2019/05/24 06:25:08;;;;;;;14.8;11.4;;;;;;;;;;;;;
2019/05/24 06:27:35;;;;;;;13.2;11.5;;;;;;;;;;;;;
2019/05/24 06:30:00;;;;;;;15.5;12.2;;;;;;;;;;;;;
2019/05/24 06:32:27;;;;;;;13.8;11.4;;;;;;;;;;;;;
2019/05/24 06:34:57;;;;;;;12.2;10.9;;;;;;;;;;;;;
2019/05/24 06:37:23;;;;;;;11.4;9.9;;;;;;;;;;;;;
2019/05/24 06:39:47;;;;;;;12.6;9.7;;;;;;;;;;;;;
2019/05/24 06:42:17;;;;;;;12.3;10.3;;;;;;;;;;;;;
2019/05/24 06:44:42;;;;;;;12.9;9.6;;;;;;;;;;;;;
2019/05/24 06:47:11;;;;;;;13.9;9.6;;;;;;;;;;;;;
2019/05/24 06:49:40;;;;;;;12.7;9.6;;;;;;;;;;;;;
2019/05/24 06:52:04;;;;;;;12.2;9.9;;;;;;;;;;;;;
2019/05/24 06:54:31;;;;;;;12.3;9.7;;;;;;;;;;;;;
2019/05/24 06:56:59;;;;;;;13.8;10;;;;;;;;;;;;;
2019/05/24 06:59:24;;;;;;;11.3;9.3;;;;;;;;;;;;;
2019/05/24 07:01:49;;;;;;;14.7;9.2;;;;;;;;;;;;;
2019/05/24 07:04:15;;;;;;;12.3;9.2;;;;;;;;;;;;;
2019/05/24 07:06:45;;;;;;;12.7;9.6;;;;;;;;;;;;;
2019/05/24 07:09:13;;;;;;;10.4;9;;;;;;;;;;;;;
2019/05/24 07:11:39;;;;;;;10.4;7.9;;;;;;;;;;;;;
2019/05/24 07:14:03;;;;;;;12.3;8.1;;;;;;;;;;;;;
2019/05/24 07:16:28;;;;;;;12.1;7.9;;;;;;;;;;;;;
2019/05/24 07:18:53;;;;;;;14.1;8.4;;;;;;;;;;;;;
2019/05/24 07:21:19;;;;;;;9;7.7;;;;;;;;;;;;;
2019/05/24 07:23:46;;;;;;;8.9;7.6;;;;;;;;;;;;;
2019/05/24 07:26:13;;;;;;;9.5;6.7;;;;;;;;;;;;;
2019/05/24 07:28:39;;;;;;;9.6;6.1;;;;;;;;;;;;;
2019/05/24 07:31:04;;;;;;;6.9;5.8;;;;;;;;;;;;;
2019/05/24 07:33:29;;;;;;;6.2;5.6;;;;;;;;;;;;;
2019/05/24 07:35:56;;;;;;;7.5;5.7;;;;;;;;;;;;;
2019/05/24 07:38:21;;;;;;;7.9;6.3;;;;;;;;;;;;;
2019/05/24 07:40:47;;;;;;;9;5.7;;;;;;;;;;;;;
2019/05/24 07:43:12;;;;;;;6.9;5.7;;;;;;;;;;;;;
2019/05/24 07:45:38;;;;;;;6.8;5.7;;;;;;;;;;;;;
2019/05/24 07:48:03;;;;;;;6.5;5.4;;;;;;;;;;;;;
2019/05/24 07:50:33;;;;;;;7.5;5.7;;;;;;;;;;;;;
2019/05/24 07:52:58;;;;;;;8;5.4;;;;;;;;;;;;;
2019/05/24 07:55:24;;;;;;;7;6;;;;;;;;;;;;;
2019/05/24 07:57:51;;;;;;;6.9;5.3;;;;;;;;;;;;;
2019/05/24 08:00:16;;;;;;;6.8;5.4;;;;;;;;;;;;;
2019/05/24 08:02:41;;;;;;;5.7;4.9;;;;;;;;;;;;;
2019/05/24 08:05:10;;;;;;;6.4;5;;;;;;;;;;;;;
2019/05/24 08:07:35;;;;;;;6.4;5;;;;;;;;;;;;;
2019/05/24 08:09:59;;;;;;;6.7;5.5;;;;;;;;;;;;;
2019/05/24 08:12:24;;;;;;;7;5.4;;;;;;;;;;;;;
2019/05/24 08:14:49;;;;;;;5.5;4.9;;;;;;;;;;;;;
2019/05/24 08:17:15;;;;;;;6.1;5;;;;;;;;;;;;;
2019/05/24 08:19:41;;;;;;;6.3;5.5;;;;;;;;;;;;;
2019/05/24 08:22:07;;;;;;;7.9;5.8;;;;;;;;;;;;;
2019/05/24 08:24:33;;;;;;;5.9;5.1;;;;;;;;;;;;;
2019/05/24 08:26:59;;;;;;;6.3;5.7;;;;;;;;;;;;;
2019/05/24 08:29:24;;;;;;;7.6;5.9;;;;;;;;;;;;;
2019/05/24 08:31:56;;;;;;;6.1;5;;;;;;;;;;;;;
2019/05/24 08:34:22;;;;;;;8;4.9;;;;;;;;;;;;;
2019/05/24 08:36:55;;;;;;;6.2;4.5;;;;;;;;;;;;;
2019/05/24 08:39:24;;;;;;;4.9;4.3;;;;;;;;;;;;;
2019/05/24 08:41:54;;;;;;;5.7;5.1;;;;;;;;;;;;;
2019/05/24 08:44:20;;;;;;;7.5;5.1;;;;;;;;;;;;;
2019/05/24 08:46:47;;;;;;;6.7;5.3;;;;;;;;;;;;;
2019/05/24 08:49:13;;;;;;;8.2;6.2;;;;;;;;;;;;;
2019/05/24 08:51:38;;;;;;;6.5;5.1;;;;;;;;;;;;;
2019/05/24 08:54:03;;;;;;;6.2;4.9;;;;;;;;;;;;;
2019/05/24 08:56:29;;;;;;;5.6;4.9;;;;;;;;;;;;;
2019/05/24 08:58:56;;;;;;;5.5;4.9;;;;;;;;;;;;;
2019/05/24 09:01:22;;;;;;;7.5;5.5;;;;;;;;;;;;;
2019/05/24 09:03:47;;;;;;;7;5.3;;;;;;;;;;;;;
2019/05/24 09:06:14;;;;;;;6.2;5.5;;;;;;;;;;;;;
2019/05/24 09:08:39;;;;;;;7.5;5.3;;;;;;;;;;;;;
2019/05/24 09:11:05;;;;;;;7.1;5.8;;;;;;;;;;;;;
2019/05/24 09:13:30;;;;;;;7.1;6;;;;;;;;;;;;;
2019/05/24 09:15:55;;;;;;;7.3;6.5;;;;;;;;;;;;;
2019/05/24 09:18:20;;;;;;;7;6.2;;;;;;;;;;;;;
2019/05/24 09:20:46;;;;;;;6;5.4;;;;;;;;;;;;;
2019/05/24 09:23:10;;;;;;;9.5;6.2;;;;;;;;;;;;;
2019/05/24 09:25:35;;;;;;;6.9;6.2;;;;;;;;;;;;;
2019/05/24 09:28:00;;;;;;;7.1;5.9;;;;;;;;;;;;;
2019/05/24 09:30:29;;;;;;;7.9;6;;;;;;;;;;;;;
2019/05/24 09:33:00;;;;;;;7.1;6.4;;;;;;;;;;;;;
2019/05/24 09:35:27;;;;;;;8.5;5.6;;;;;;;;;;;;;
2019/05/24 09:37:52;;;;;;;6.5;5.8;;;;;;;;;;;;;
2019/05/24 09:40:33;;;;;;;6.8;6;;;;;;;;;;;;;
2019/05/24 09:42:59;;;;;;;7.1;5.6;;;;;;;;;;;;;
2019/05/24 09:45:24;;;;;;;8.7;5.4;;;;;;;;;;;;;
2019/05/24 09:47:51;;;;;;;5.6;4.8;;;;;;;;;;;;;
2019/05/24 09:50:15;;;;;;;6;4.9;;;;;;;;;;;;;
2019/05/24 09:52:41;;;;;;;5.8;5.1;;;;;;;;;;;;;
2019/05/24 09:55:06;;;;;;;6.7;5.5;;;;;;;;;;;;;
2019/05/24 09:57:42;;;;;;;6.3;5.7;;;;;;;;;;;;;
2019/05/24 10:00:05;;;;;;;5.5;4.7;;;;;;;;;;;;;
2019/05/24 10:02:30;;;;;;;7;5.5;;;;;;;;;;;;;
2019/05/24 10:04:55;;;;;;;5;4.5;;;;;;;;;;;;;
2019/05/24 10:07:22;;;;;;;5.7;4.4;;;;;;;;;;;;;
2019/05/24 10:09:50;;;;;;;6;5;;;;;;;;;;;;;
2019/05/24 10:12:13;;;;;;;6.6;5.2;;;;;;;;;;;;;
2019/05/24 10:14:36;;;;;;;6.4;5.4;;;;;;;;;;;;;
2019/05/24 10:17:01;;;;;;;6.6;5.1;;;;;;;;;;;;;
2019/05/24 10:19:26;;;;;;;7.3;4.9;;;;;;;;;;;;;
2019/05/24 10:21:51;;;;;;;8.2;5.3;;;;;;;;;;;;;
2019/05/24 10:24:16;;;;;;;6.2;4.9;;;;;;;;;;;;;
2019/05/24 10:26:43;;;;;;;7;4;;;;;;;;;;;;;
2019/05/24 10:29:08;;;;;;;6.4;4.6;;;;;;;;;;;;;
2019/05/24 10:31:35;;;;;;;5.4;4.4;;;;;;;;;;;;;
2019/05/24 10:34:00;;;;;;;4.8;4.3;;;;;;;;;;;;;
2019/05/24 10:36:26;;;;;;;4.9;4.4;;;;;;;;;;;;;
2019/05/24 10:38:51;;;;;;;7.1;4.4;;;;;;;;;;;;;
2019/05/24 10:41:16;;;;;;;5.5;4.4;;;;;;;;;;;;;
2019/05/24 10:43:41;;;;;;;5.4;4.5;;;;;;;;;;;;;
2019/05/24 10:46:08;;;;;;;5.9;4.7;;;;;;;;;;;;;
2019/05/24 10:48:34;;;;;;;5.3;4.8;;;;;;;;;;;;;
2019/05/24 10:51:05;;;;;;;6.2;5.2;;;;;;;;;;;;;
2019/05/24 10:53:31;;;;;;;7.4;5;;;;;;;;;;;;;
2019/05/24 10:55:56;;;;;;;6.8;5;;;;;;;;;;;;;
2019/05/24 10:58:21;;;;;;;4.8;4.4;;;;;;;;;;;;;
2019/05/24 11:00:46;;;;;;;4.9;4.4;;;;;;;;;;;;;
2019/05/24 11:03:17;;;;;;;5.3;4.1;;;;;;;;;;;;;
2019/05/24 11:05:41;;;;;;;4.8;4.3;;;;;;;;;;;;;
2019/05/24 11:08:06;;;;;;;8.1;4.4;;;;;;;;;;;;;
2019/05/24 11:10:31;;;;;;;5.4;4.3;;;;;;;;;;;;;
2019/05/24 11:12:56;;;;;;;5.1;4.6;;;;;;;;;;;;;
2019/05/24 11:15:22;;;;;;;5.1;4.4;;;;;;;;;;;;;
2019/05/24 11:17:54;;;;;;;5.7;4.6;;;;;;;;;;;;;
2019/05/24 11:20:20;;;;;;;5.7;3.9;;;;;;;;;;;;;
2019/05/24 11:22:44;;;;;;;6.2;4.1;;;;;;;;;;;;;
2019/05/24 11:25:10;;;;;;;5.2;4.6;;;;;;;;;;;;;
2019/05/24 11:27:35;;;;;;;7.3;5.3;;;;;;;;;;;;;
2019/05/24 11:30:00;;;;;;;5.7;5.1;;;;;;;;;;;;;
2019/05/24 11:32:28;;;;;;;6.5;4.6;;;;;;;;;;;;;
2019/05/24 11:34:53;;;;;;;6;4.9;;;;;;;;;;;;;
2019/05/24 11:37:19;;;;;;;6.2;5.1;;;;;;;;;;;;;
2019/05/24 11:39:44;;;;;;;6.5;5.3;;;;;;;;;;;;;
2019/05/24 11:42:09;;;;;;;6.4;5.8;;;;;;;;;;;;;
2019/05/24 11:44:34;;;;;;;8.6;6.1;;;;;;;;;;;;;
2019/05/24 11:47:00;;;;;;;8.3;5.7;;;;;;;;;;;;;
2019/05/24 11:49:25;;;;;;;6.8;5.4;;;;;;;;;;;;;
2019/05/24 11:51:51;;;;;;;6.1;4.6;;;;;;;;;;;;;
2019/05/24 11:54:16;;;;;;;5.9;4.6;;;;;;;;;;;;;
2019/05/24 11:56:42;;;;;;;8.2;5.6;;;;;;;;;;;;;
2019/05/24 11:59:07;;;;;;;5.6;5;;;;;;;;;;;;;
2019/05/24 12:01:32;;;;;;;5.9;5.3;;;;;;;;;;;;;
2019/05/24 12:03:57;;;;;;;6.6;5.1;;;;;;;;;;;;;
2019/05/24 12:06:24;;;;;;;5.5;5;;;;;;;;;;;;;
2019/05/24 12:08:47;;;;;;;7;5.3;;;;;;;;;;;;;
2019/05/24 12:11:13;;;;;;;5.6;5.1;;;;;;;;;;;;;
2019/05/24 12:13:40;;;;;;;4.9;4;;;;;;;;;;;;;
2019/05/24 12:16:05;;;;;;;5.9;5.3;;;;;;;;;;;;;
2019/05/24 12:18:32;;;;;;;7;5.5;;;;;;;;;;;;;
2019/05/24 12:20:57;;;;;;;7.3;6.6;;;;;;;;;;;;;
2019/05/24 12:23:22;;;;;;;6.3;5.7;;;;;;;;;;;;;
2019/05/24 12:25:47;;;;;;;7.5;6.1;;;;;;;;;;;;;
2019/05/24 12:28:15;;;;;;;7.4;5.9;;;;;;;;;;;;;
2019/05/24 12:30:38;;;;;;;8.1;6.7;;;;;;;;;;;;;
2019/05/24 12:33:03;;;;;;;7.9;6.6;;;;;;;;;;;;;
2019/05/24 12:35:28;;;;;;;7.4;6.7;;;;;;;;;;;;;
2019/05/24 12:37:53;;;;;;;7.5;6.7;;;;;;;;;;;;;
2019/05/24 12:40:19;;;;;;;7.9;6.2;;;;;;;;;;;;;
2019/05/24 12:42:44;;;;;;;6.7;6.1;;;;;;;;;;;;;
2019/05/24 12:45:10;;;;;;;6.8;5.6;;;;;;;;;;;;;
2019/05/24 12:47:35;;;;;;;7.8;6.2;;;;;;;;;;;;;
2019/05/24 12:50:01;;;;;;;7.3;6.5;;;;;;;;;;;;;
2019/05/24 12:52:26;;;;;;;7.3;6.6;;;;;;;;;;;;;
2019/05/24 12:54:52;;;;;;;6.3;5.4;;;;;;;;;;;;;
2019/05/24 12:57:16;;;;;;;6.9;6.2;;;;;;;;;;;;;
2019/05/24 12:59:42;;;;;;;6.6;5.9;;;;;;;;;;;;;
2019/05/24 13:02:09;;;;;;;6.5;5.1;;;;;;;;;;;;;
2019/05/24 13:04:33;;;;;;;6.5;5.9;;;;;;;;;;;;;
2019/05/24 13:06:59;;;;;;;6;5.4;;;;;;;;;;;;;
2019/05/24 13:09:24;;;;;;;6;5.1;;;;;;;;;;;;;
2019/05/24 13:11:50;;;;;;;7.7;6.9;;;;;;;;;;;;;
2019/05/24 13:14:16;;;;;;;7.2;6.5;;;;;;;;;;;;;
2019/05/24 13:16:44;;;;;;;7.1;6.4;;;;;;;;;;;;;
2019/05/24 13:19:12;;;;;;;7.3;5.6;;;;;;;;;;;;;
2019/05/24 13:21:32;;;;;;;6.1;5.5;;;;;;;;;;;;;
2019/05/24 13:23:59;;;;;;;6.2;5.6;;;;;;;;;;;;;
2019/05/24 13:26:24;;;;;;;7.7;5.9;;;;;;;;;;;;;
2019/05/24 13:28:50;;;;;;;8.9;5.7;;;;;;;;;;;;;
2019/05/24 13:31:15;;;;;;;5.8;5.2;;;;;;;;;;;;;
2019/05/24 13:33:46;;;;;;;5.9;5;;;;;;;;;;;;;
2019/05/24 13:36:08;;;;;;;6.7;5.4;;;;;;;;;;;;;
2019/05/24 13:38:33;;;;;;;8.2;5.4;;;;;;;;;;;;;
2019/05/24 13:40:59;;;;;;;6.6;5.8;;;;;;;;;;;;;
2019/05/24 13:43:26;;;;;;;6.4;5.8;;;;;;;;;;;;;
2019/05/24 13:45:51;;;;;;;7.1;5.7;;;;;;;;;;;;;
2019/05/24 13:48:22;;;;;;;6.1;5.2;;;;;;;;;;;;;
2019/05/24 13:50:48;;;;;;;5.9;5.3;;;;;;;;;;;;;
2019/05/24 13:53:13;;;;;;;5.4;4.9;;;;;;;;;;;;;
2019/05/24 13:55:38;;;;;;;4.7;4;;;;;;;;;;;;;
2019/05/24 13:58:03;;;;;;;6.4;5.5;;;;;;;;;;;;;
2019/05/24 14:00:28;;;;;;;4.9;4.4;;;;;;;;;;;;;
2019/05/24 14:02:58;;;;;;;4.8;4.3;;;;;;;;;;;;;
2019/05/24 14:05:22;;;;;;;6.9;5.8;;;;;;;;;;;;;
2019/05/24 14:07:51;;;;;;;6.3;5.7;;;;;;;;;;;;;
2019/05/24 14:10:16;;;;;;;5.9;5.2;;;;;;;;;;;;;
2019/05/24 14:12:41;;;;;;;7;5.3;;;;;;;;;;;;;
2019/05/24 14:15:06;;;;;;;7.1;4.4;;;;;;;;;;;;;
2019/05/24 14:17:31;;;;;;;5.7;5.2;;;;;;;;;;;;;
2019/05/24 14:19:57;;;;;;;5.3;4.8;;;;;;;;;;;;;
2019/05/24 14:22:23;;;;;;;5.1;4.4;;;;;;;;;;;;;
2019/05/24 14:24:48;;;;;;;4.5;3.9;;;;;;;;;;;;;
2019/05/24 14:27:16;;;;;;;5.2;3.9;;;;;;;;;;;;;
2019/05/24 14:29:40;;;;;;;5.8;4.6;;;;;;;;;;;;;
2019/05/24 14:32:06;;;;;;;4.9;3.7;;;;;;;;;;;;;
2019/05/24 14:34:32;;;;;;;3.6;3.3;;;;;;;;;;;;;
2019/05/24 14:36:56;;;;;;;4.5;3.2;;;;;;;;;;;;;
2019/05/24 14:39:21;;;;;;;4.4;3.8;;;;;;;;;;;;;
2019/05/24 14:41:46;;;;;;;6.3;5;;;;;;;;;;;;;
2019/05/24 14:44:12;;;;;;;6.4;5.8;;;;;;;;;;;;;
2019/05/24 14:46:37;;;;;;;5.8;5.2;;;;;;;;;;;;;
2019/05/24 14:49:06;;;;;;;6.1;4.2;;;;;;;;;;;;;
2019/05/24 14:51:29;;;;;;;4.5;3.5;;;;;;;;;;;;;
2019/05/24 14:53:54;;;;;;;5.4;3.4;;;;;;;;;;;;;
2019/05/24 14:56:20;;;;;;;5.2;3.5;;;;;;;;;;;;;
2019/05/24 14:58:46;;;;;;;5.2;3.3;;;;;;;;;;;;;
2019/05/24 15:01:11;;;;;;;4.4;3.2;;;;;;;;;;;;;
2019/05/24 15:03:37;;;;;;;4.6;3.4;;;;;;;;;;;;;
2019/05/24 15:06:01;;;;;;;6.8;4.9;;;;;;;;;;;;;
2019/05/24 15:08:26;;;;;;;5.8;4.6;;;;;;;;;;;;;
2019/05/24 15:10:52;;;;;;;5.2;4.4;;;;;;;;;;;;;
2019/05/24 15:13:16;;;;;;;7.4;5.4;;;;;;;;;;;;;
2019/05/24 15:15:42;;;;;;;7.9;4.5;;;;;;;;;;;;;
2019/05/24 15:18:08;;;;;;;7.2;5.1;;;;;;;;;;;;;
2019/05/24 15:20:35;;;;;;;7.3;5.8;;;;;;;;;;;;;
2019/05/24 15:23:00;;;;;;;6.3;5.2;;;;;;;;;;;;;
2019/05/24 15:25:24;;;;;;;6.7;5;;;;;;;;;;;;;
2019/05/24 15:27:49;;;;;;;6.2;5.6;;;;;;;;;;;;;
2019/05/24 15:30:14;;;;;;;7.5;4.8;;;;;;;;;;;;;
2019/05/24 15:32:40;;;;;;;6.3;4.9;;;;;;;;;;;;;
2019/05/24 15:35:05;;;;;;;7.1;4.9;;;;;;;;;;;;;
2019/05/24 15:37:34;;;;;;;5.6;3.9;;;;;;;;;;;;;
2019/05/24 15:39:58;;;;;;;4.3;3.7;;;;;;;;;;;;;
2019/05/24 15:42:23;;;;;;;4.6;3.3;;;;;;;;;;;;;
2019/05/24 15:44:49;;;;;;;3.2;2.9;;;;;;;;;;;;;
2019/05/24 15:47:26;;;;;;;4.7;3.3;;;;;;;;;;;;;
2019/05/24 15:49:58;;;;;;;4.9;2.9;;;;;;;;;;;;;
2019/05/24 15:52:24;;;;;;;4.7;3.8;;;;;;;;;;;;;
2019/05/24 15:54:50;;;;;;;5.2;2.9;;;;;;;;;;;;;
2019/05/24 15:57:15;;;;;;;4.7;3.3;;;;;;;;;;;;;
2019/05/24 15:59:40;;;;;;;5.2;3.6;;;;;;;;;;;;;
2019/05/24 16:02:10;;;;;;;6.4;3.4;;;;;;;;;;;;;
2019/05/24 16:04:35;;;;;;;5.9;3.2;;;;;;;;;;;;;
2019/05/24 16:07:00;;;;;;;5.7;3.4;;;;;;;;;;;;;
2019/05/24 16:09:25;;;;;;;4.1;3.3;;;;;;;;;;;;;
2019/05/24 16:11:59;;;;;;;4.5;3.3;;;;;;;;;;;;;
2019/05/24 16:14:24;;;;;;;4.3;3.2;;;;;;;;;;;;;
2019/05/24 16:16:49;;;;;;;3.4;3;;;;;;;;;;;;;
2019/05/24 16:19:14;;;;;;;4.2;3;;;;;;;;;;;;;
2019/05/24 16:21:39;;;;;;;4.3;3.1;;;;;;;;;;;;;
2019/05/24 16:24:04;;;;;;;4.6;3.6;;;;;;;;;;;;;
2019/05/24 16:26:29;;;;;;;4.7;3.1;;;;;;;;;;;;;
2019/05/24 16:28:55;;;;;;;4.1;2.8;;;;;;;;;;;;;
2019/05/24 16:31:21;;;;;;;5;3.3;;;;;;;;;;;;;
2019/05/24 16:33:46;;;;;;;4.7;3;;;;;;;;;;;;;
2019/05/24 16:36:11;;;;;;;3.6;2.9;;;;;;;;;;;;;
2019/05/24 16:38:36;;;;;;;4.7;3.2;;;;;;;;;;;;;
2019/05/24 16:41:01;;;;;;;3.6;2.8;;;;;;;;;;;;;
2019/05/24 16:43:26;;;;;;;4.2;2.9;;;;;;;;;;;;;
2019/05/24 16:45:53;;;;;;;4.4;3.1;;;;;;;;;;;;;
2019/05/24 16:48:18;;;;;;;4.6;3.2;;;;;;;;;;;;;
2019/05/24 16:50:45;;;;;;;4.1;3.1;;;;;;;;;;;;;
2019/05/24 16:53:10;;;;;;;4.7;3.4;;;;;;;;;;;;;
2019/05/24 16:55:36;;;;;;;4.8;3.2;;;;;;;;;;;;;
2019/05/24 16:58:01;;;;;;;5.3;3.6;;;;;;;;;;;;;
2019/05/24 17:00:26;;;;;;;3.9;3.2;;;;;;;;;;;;;
2019/05/24 17:02:51;;;;;;;4.9;3.2;;;;;;;;;;;;;
2019/05/24 17:05:17;;;;;;;5.5;3.1;;;;;;;;;;;;;
2019/05/24 17:07:50;;;;;;;3.7;3.2;;;;;;;;;;;;;
2019/05/24 17:10:18;;;;;;;3.5;3;;;;;;;;;;;;;
2019/05/24 17:12:43;;;;;;;4.3;2.8;;;;;;;;;;;;;
2019/05/24 17:15:08;;;;;;;4.2;3.1;;;;;;;;;;;;;
2019/05/24 17:17:34;;;;;;;4.5;3;;;;;;;;;;;;;
2019/05/24 17:20:09;;;;;;;6.1;2.6;;;;;;;;;;;;;
2019/05/24 17:22:34;;;;;;;3.8;2.7;;;;;;;;;;;;;
2019/05/24 17:25:00;;;;;;;5.1;2.7;;;;;;;;;;;;;
2019/05/24 17:27:26;;;;;;;4.4;2.9;;;;;;;;;;;;;
2019/05/24 17:29:51;;;;;;;2.9;2.5;;;;;;;;;;;;;
2019/05/24 17:32:16;;;;;;;3.8;2.6;;;;;;;;;;;;;
2019/05/24 17:34:51;;;;;;;5.2;2.6;;;;;;;;;;;;;
2019/05/24 17:37:12;;;;;;;4.8;2.8;;;;;;;;;;;;;
2019/05/24 17:39:44;;;;;;;4.7;3;;;;;;;;;;;;;
2019/05/24 17:42:09;;;;;;;4.8;2.6;;;;;;;;;;;;;
2019/05/24 17:44:34;;;;;;;4.5;2.8;;;;;;;;;;;;;
2019/05/24 17:47:00;;;;;;;5.3;2.9;;;;;;;;;;;;;
2019/05/24 17:49:25;;;;;;;4.4;2.7;;;;;;;;;;;;;
2019/05/24 17:51:50;;;;;;;3.8;2.6;;;;;;;;;;;;;
2019/05/24 17:54:15;;;;;;;6.2;3.1;;;;;;;;;;;;;
2019/05/24 17:56:41;;;;;;;3.7;2.9;;;;;;;;;;;;;
2019/05/24 17:59:06;;;;;;;3.7;2.4;;;;;;;;;;;;;
2019/05/24 18:01:32;;;;;;;2.6;2.1;;;;;;;;;;;;;
2019/05/24 18:03:57;;;;;;;5.3;2;;;;;;;;;;;;;
2019/05/24 18:06:29;;;;;;;4.9;2.4;;;;;;;;;;;;;
2019/05/24 18:08:54;;;;;;;3.1;2;;;;;;;;;;;;;
2019/05/24 18:11:19;;;;;;;4.1;2.4;;;;;;;;;;;;;
2019/05/24 18:13:45;;;;;;;5.7;2.2;;;;;;;;;;;;;
2019/05/24 18:16:10;;;;;;;4.2;2.1;;;;;;;;;;;;;
2019/05/24 18:18:35;;;;;;;2.4;1.9;;;;;;;;;;;;;
2019/05/24 18:21:00;;;;;;;4.6;2.3;;;;;;;;;;;;;
2019/05/24 18:23:25;;;;;;;3.8;2.3;;;;;;;;;;;;;
2019/05/24 18:25:51;;;;;;;3.4;2.2;;;;;;;;;;;;;
2019/05/24 18:28:16;;;;;;;2.5;2.1;;;;;;;;;;;;;
2019/05/24 18:30:41;;;;;;;3.1;2.1;;;;;;;;;;;;;